createdAt,value
2018-10-18T00:00:40.856Z,72.41
2018-10-18T00:01:40.858Z,72.31
2018-10-18T00:02:40.849Z,72.20
2018-10-18T00:03:40.869Z,71.83
2018-10-18T00:04:40.816Z,71.93
2018-10-18T00:05:40.831Z,71.73
2018-10-18T00:06:40.785Z,71.80
2018-10-18T00:07:40.781Z,71.49
2018-10-18T00:08:40.779Z,71.59
2018-10-18T00:09:40.754Z,71.08
2018-10-18T00:10:40.771Z,71.08
2018-10-18T00:11:40.763Z,71.56
2018-10-18T00:12:40.772Z,69.79
2018-10-18T00:13:40.724Z,69.89
2018-10-18T00:14:40.699Z,69.58
2018-10-18T00:15:40.712Z,69.82
2018-10-18T00:16:40.696Z,70.43
2018-10-18T00:17:40.682Z,69.75
2018-10-18T00:18:40.654Z,69.65
2018-10-18T00:19:40.662Z,69.65
2018-10-18T00:20:40.633Z,69.71
2018-10-18T00:21:40.646Z,70.06
2018-10-18T00:22:40.642Z,69.75
2018-10-18T00:23:40.604Z,69.65
2018-10-18T00:24:40.594Z,70.16
2018-10-18T00:25:40.584Z,70.36
2018-10-18T00:26:40.582Z,71.32
2018-10-18T00:27:40.582Z,71.42
2018-10-18T00:28:40.549Z,71.32
2018-10-18T00:29:40.541Z,71.11
2018-10-18T00:30:40.548Z,71.42
2018-10-18T00:31:40.519Z,71.22
2018-10-18T00:32:40.511Z,71.35
2018-10-18T00:33:40.512Z,71.86
2018-10-18T00:34:40.517Z,72.68
2018-10-18T00:35:40.473Z,72.68
2018-10-18T00:36:40.461Z,72.68
2018-10-18T00:37:40.484Z,72.82
2018-10-18T00:38:40.446Z,73.50
2018-10-18T00:39:40.443Z,72.07
2018-10-18T00:40:40.421Z,72.38
2018-10-18T00:41:40.415Z,72.17
2018-10-18T00:42:40.401Z,71.52
2018-10-18T00:43:40.409Z,71.25
2018-10-18T00:44:40.423Z,71.22
2018-10-18T00:45:40.374Z,71.22
2018-10-18T00:46:40.355Z,71.11
2018-10-18T00:47:40.343Z,71.11
2018-10-18T00:48:41.315Z,71.04
2018-10-18T00:49:40.330Z,71.35
2018-10-18T00:50:40.319Z,72.07
2018-10-18T00:51:40.304Z,72.20
2018-10-18T00:52:40.293Z,72.61
2018-10-18T00:53:40.277Z,72.20
2018-10-18T00:54:40.316Z,72.00
2018-10-18T00:55:40.259Z,72.51
2018-10-18T00:56:40.265Z,72.10
2018-10-18T00:57:40.272Z,72.10
2018-10-18T00:58:40.230Z,72.10
2018-10-18T00:59:40.218Z,71.90
2018-10-18T01:00:40.212Z,71.59
2018-10-18T01:01:40.211Z,71.48
2018-10-18T01:02:40.217Z,71.48
2018-10-18T01:03:40.174Z,71.39
2018-10-18T01:04:40.168Z,71.90
2018-10-18T01:05:40.155Z,72.00
2018-10-18T01:06:40.146Z,72.31
2018-10-18T01:07:40.150Z,72.51
2018-10-18T01:08:40.151Z,73.36
2018-10-18T01:09:40.111Z,72.75
2018-10-18T01:10:40.099Z,72.75
2018-10-18T01:11:40.103Z,72.24
2018-10-18T01:12:40.201Z,72.85
2018-10-18T01:13:40.075Z,73.57
2018-10-18T01:14:40.070Z,73.40
2018-10-18T01:15:40.105Z,73.57
2018-10-18T01:16:40.033Z,73.78
2018-10-18T01:17:40.025Z,73.36
2018-10-18T01:18:40.019Z,73.68
2018-10-18T01:19:40.006Z,73.36
2018-10-18T01:20:40.020Z,73.27
2018-10-18T01:21:39.981Z,73.78
2018-10-18T01:22:39.985Z,73.61
2018-10-18T01:23:39.969Z,73.30
2018-10-18T01:24:39.952Z,73.40
2018-10-18T01:25:39.947Z,73.71
2018-10-18T01:26:39.932Z,74.32
2018-10-18T01:27:39.916Z,74.32
2018-10-18T01:28:39.905Z,73.95
2018-10-18T01:29:39.916Z,73.85
2018-10-18T01:30:39.898Z,73.44
2018-10-18T01:31:39.898Z,73.74
2018-10-18T01:32:39.866Z,74.32
2018-10-18T01:33:39.880Z,74.12
2018-10-18T01:34:39.851Z,74.32
2018-10-18T01:35:39.831Z,74.22
2018-10-18T01:36:39.844Z,73.61
2018-10-18T01:37:39.811Z,73.71
2018-10-18T01:38:39.799Z,74.32
2018-10-18T01:39:39.817Z,73.71
2018-10-18T01:40:39.776Z,73.81
2018-10-18T01:41:39.776Z,73.81
2018-10-18T01:42:39.765Z,74.32
2018-10-18T01:43:39.793Z,73.61
2018-10-18T01:44:39.736Z,74.12
2018-10-18T01:45:39.726Z,74.22
2018-10-18T01:46:39.715Z,73.61
2018-10-18T01:47:39.728Z,73.71
2018-10-18T01:48:39.693Z,73.64
2018-10-18T01:49:39.704Z,73.30
2018-10-18T01:50:39.671Z,73.10
2018-10-18T01:51:39.659Z,72.99
2018-10-18T01:52:39.689Z,73.33
2018-10-18T01:53:39.637Z,73.71
2018-10-18T01:54:39.643Z,73.30
2018-10-18T01:55:39.620Z,73.71
2018-10-18T01:56:39.650Z,73.85
2018-10-18T01:57:39.598Z,73.13
2018-10-18T01:58:39.591Z,73.23
2018-10-18T01:59:39.582Z,73.74
2018-10-18T02:00:39.561Z,73.64
2018-10-18T02:01:39.555Z,73.50
2018-10-18T02:02:39.567Z,72.99
2018-10-18T02:03:39.532Z,73.61
2018-10-18T02:04:39.529Z,73.44
2018-10-18T02:05:39.530Z,73.85
2018-10-18T02:06:39.504Z,72.99
2018-10-18T02:07:39.497Z,72.68
2018-10-18T02:08:39.500Z,72.38
2018-10-18T02:09:39.472Z,72.61
2018-10-18T02:10:39.458Z,73.19
2018-10-18T02:11:39.448Z,72.31
2018-10-18T02:12:39.468Z,72.41
2018-10-18T02:13:39.503Z,71.89
2018-10-18T02:14:39.416Z,71.89
2018-10-18T02:15:39.405Z,72.10
2018-10-18T02:16:39.391Z,72.61
2018-10-18T02:17:39.393Z,73.13
2018-10-18T02:18:39.393Z,73.85
2018-10-18T02:19:39.365Z,73.64
2018-10-18T02:20:39.347Z,73.95
2018-10-18T02:21:39.343Z,73.74
2018-10-18T02:22:39.330Z,73.44
2018-10-18T02:23:39.324Z,73.54
2018-10-18T02:24:39.335Z,72.72
2018-10-18T02:25:39.314Z,73.13
2018-10-18T02:26:39.293Z,73.02
2018-10-18T02:27:39.290Z,72.72
2018-10-18T02:28:39.274Z,73.02
2018-10-18T02:29:39.258Z,72.31
2018-10-18T02:30:39.256Z,72.61
2018-10-18T02:31:39.242Z,72.82
2018-10-18T02:32:39.253Z,72.61
2018-10-18T02:33:39.231Z,73.13
2018-10-18T02:34:39.221Z,73.33
2018-10-18T02:35:39.230Z,72.65
2018-10-18T02:36:39.196Z,72.72
2018-10-18T02:37:39.204Z,72.61
2018-10-18T02:38:39.155Z,72.65
2018-10-18T02:39:39.173Z,72.34
2018-10-18T02:40:39.153Z,72.85
2018-10-18T02:41:39.130Z,72.75
2018-10-18T02:42:39.126Z,72.55
2018-10-18T02:43:39.105Z,72.75
2018-10-18T02:44:39.094Z,72.24
2018-10-18T02:45:39.119Z,72.03
2018-10-18T02:46:39.085Z,72.24
2018-10-18T02:47:39.062Z,72.55
2018-10-18T02:48:39.054Z,72.75
2018-10-18T02:49:39.034Z,72.75
2018-10-18T02:50:39.025Z,72.03
2018-10-18T02:51:39.025Z,72.03
2018-10-18T02:52:39.026Z,71.72
2018-10-18T02:53:38.994Z,71.69
2018-10-18T02:54:38.991Z,71.17
2018-10-18T02:55:38.975Z,71.28
2018-10-18T02:56:38.983Z,71.28
2018-10-18T02:57:38.965Z,71.28
2018-10-18T02:58:38.960Z,71.48
2018-10-18T02:59:38.929Z,71.28
2018-10-18T03:00:38.917Z,71.69
2018-10-18T03:01:38.956Z,71.59
2018-10-18T03:02:38.900Z,71.59
2018-10-18T03:03:38.888Z,71.48
2018-10-18T03:04:38.875Z,71.48
2018-10-18T03:05:38.863Z,71.28
2018-10-18T03:06:38.852Z,71.41
2018-10-18T03:07:38.871Z,72.03
2018-10-18T03:08:38.839Z,71.83
2018-10-18T03:09:38.823Z,71.83
2018-10-18T03:10:38.809Z,72.03
2018-10-18T03:11:38.811Z,72.13
2018-10-18T03:12:38.809Z,72.17
2018-10-18T03:13:38.808Z,72.03
2018-10-18T03:14:38.768Z,71.83
2018-10-18T03:15:38.756Z,71.48
2018-10-18T03:16:38.759Z,71.31
2018-10-18T03:17:38.774Z,71.83
2018-10-18T03:18:38.733Z,71.51
2018-10-18T03:19:38.716Z,71.72
2018-10-18T03:20:38.713Z,71.83
2018-10-18T03:21:38.688Z,71.72
2018-10-18T03:22:38.682Z,71.51
2018-10-18T03:23:38.684Z,71.62
2018-10-18T03:24:38.656Z,71.93
2018-10-18T03:25:38.656Z,72.17
2018-10-18T03:26:38.658Z,71.96
2018-10-18T03:27:38.631Z,72.68
2018-10-18T03:28:38.634Z,72.89
2018-10-18T03:29:38.617Z,72.68
2018-10-18T03:30:38.600Z,72.41
2018-10-18T03:31:38.591Z,72.78
2018-10-18T03:32:38.572Z,72.17
2018-10-18T03:33:38.575Z,72.58
2018-10-18T03:34:38.556Z,72.78
2018-10-18T03:35:38.604Z,73.81
2018-10-18T03:36:38.538Z,73.71
2018-10-18T03:37:38.525Z,73.81
2018-10-18T03:38:38.506Z,73.91
2018-10-18T03:39:38.519Z,73.61
2018-10-18T03:40:38.493Z,74.46
2018-10-18T03:41:38.482Z,74.15
2018-10-18T03:42:38.489Z,74.57
2018-10-18T03:43:38.453Z,74.57
2018-10-18T03:44:38.491Z,74.08
2018-10-18T03:45:38.438Z,75.01
2018-10-18T03:46:38.419Z,75.01
2018-10-18T03:47:38.408Z,74.70
2018-10-18T03:48:38.406Z,74.91
2018-10-18T03:49:38.425Z,74.98
2018-10-18T03:50:38.387Z,74.15
2018-10-18T03:51:38.377Z,74.26
2018-10-18T03:52:38.377Z,73.85
2018-10-18T03:53:38.353Z,74.15
2018-10-18T03:54:38.344Z,74.87
2018-10-18T03:55:38.329Z,74.36
2018-10-18T03:56:38.316Z,74.15
2018-10-18T03:57:38.330Z,74.36
2018-10-18T03:58:38.322Z,73.98
2018-10-18T03:59:38.401Z,73.98
2018-10-18T04:00:38.273Z,74.46
2018-10-18T04:01:38.263Z,74.08
2018-10-18T04:02:38.254Z,73.88
2018-10-18T04:03:38.244Z,74.60
2018-10-18T04:04:38.241Z,74.60
2018-10-18T04:05:38.214Z,74.77
2018-10-18T04:06:38.230Z,74.50
2018-10-18T04:07:38.195Z,73.95
2018-10-18T04:08:38.193Z,75.08
2018-10-18T04:09:38.193Z,75.52
2018-10-18T04:10:38.202Z,74.91
2018-10-18T04:11:38.163Z,74.40
2018-10-18T04:12:38.174Z,74.60
2018-10-18T04:13:38.134Z,74.91
2018-10-18T04:14:38.129Z,74.91
2018-10-18T04:15:38.113Z,75.42
2018-10-18T04:16:38.100Z,74.50
2018-10-18T04:17:38.128Z,74.95
2018-10-18T04:18:38.077Z,74.60
2018-10-18T04:19:38.072Z,75.32
2018-10-18T04:20:38.066Z,75.46
2018-10-18T04:21:38.047Z,75.05
2018-10-18T04:22:38.032Z,74.91
2018-10-18T04:23:38.029Z,74.70
2018-10-18T04:24:38.025Z,74.60
2018-10-18T04:25:38.116Z,74.74
2018-10-18T04:26:38.013Z,74.63
2018-10-18T04:27:37.979Z,75.12
2018-10-18T04:28:37.993Z,74.80
2018-10-18T04:29:37.965Z,74.29
2018-10-18T04:30:37.950Z,74.80
2018-10-18T04:31:37.938Z,74.70
2018-10-18T04:32:38.025Z,74.19
2018-10-18T04:33:37.946Z,74.70
2018-10-18T04:34:37.906Z,74.84
2018-10-18T04:35:37.900Z,74.80
2018-10-18T04:36:37.882Z,74.80
2018-10-18T04:37:37.975Z,75.35
2018-10-18T04:38:37.884Z,75.01
2018-10-18T04:39:37.852Z,74.22
2018-10-18T04:40:37.842Z,74.70
2018-10-18T04:41:37.849Z,73.98
2018-10-18T04:42:37.869Z,73.88
2018-10-18T04:43:37.823Z,73.78
2018-10-18T04:44:37.797Z,73.68
2018-10-18T04:45:37.805Z,73.98
2018-10-18T04:46:37.788Z,73.78
2018-10-18T04:47:37.880Z,74.19
2018-10-18T04:48:37.936Z,73.78
2018-10-18T04:49:37.741Z,73.88
2018-10-18T04:50:37.731Z,73.88
2018-10-18T04:51:37.731Z,73.78
2018-10-18T04:52:37.728Z,74.40
2018-10-18T04:53:37.720Z,74.43
2018-10-18T04:54:37.698Z,73.88
2018-10-18T04:55:37.730Z,73.98
2018-10-18T04:56:37.682Z,75.12
2018-10-18T04:57:37.660Z,74.60
2018-10-18T04:58:37.664Z,73.74
2018-10-18T04:59:37.665Z,73.98
2018-10-18T05:00:37.622Z,73.78
2018-10-18T05:01:37.610Z,73.95
2018-10-18T05:02:37.648Z,73.44
2018-10-18T05:03:37.596Z,73.33
2018-10-18T05:04:37.589Z,73.44
2018-10-18T05:05:37.597Z,73.74
2018-10-18T05:06:37.562Z,73.74
2018-10-18T05:07:37.556Z,73.64
2018-10-18T05:08:37.545Z,73.23
2018-10-18T05:09:37.536Z,72.78
2018-10-18T05:10:37.515Z,72.78
2018-10-18T05:11:37.505Z,72.78
2018-10-18T05:12:37.501Z,72.47
2018-10-18T05:13:37.502Z,73.13
2018-10-18T05:14:37.501Z,72.47
2018-10-18T05:15:37.478Z,72.72
2018-10-18T05:16:37.479Z,73.23
2018-10-18T05:17:37.454Z,73.74
2018-10-18T05:18:37.428Z,73.33
2018-10-18T05:19:37.427Z,74.46
2018-10-18T05:20:37.417Z,73.85
2018-10-18T05:21:37.406Z,73.95
2018-10-18T05:22:37.384Z,74.46
2018-10-18T05:23:37.387Z,73.64
2018-10-18T05:24:37.387Z,73.95
2018-10-18T05:25:37.408Z,73.47
2018-10-18T05:26:37.357Z,73.64
2018-10-18T05:27:37.335Z,73.47
2018-10-18T05:28:37.335Z,73.47
2018-10-18T05:29:37.336Z,73.57
2018-10-18T05:30:37.337Z,74.50
2018-10-18T05:31:37.372Z,73.88
2018-10-18T05:32:37.285Z,74.50
2018-10-18T05:33:37.269Z,73.98
2018-10-18T05:34:37.256Z,74.80
2018-10-18T05:35:37.292Z,74.84
2018-10-18T05:36:37.254Z,74.60
2018-10-18T05:37:37.292Z,74.60
2018-10-18T05:38:37.256Z,74.95
2018-10-18T05:39:37.201Z,74.80
2018-10-18T05:40:37.198Z,74.95
2018-10-18T05:41:37.185Z,74.53
2018-10-18T05:42:37.171Z,75.35
2018-10-18T05:43:37.171Z,75.56
2018-10-18T05:44:37.166Z,75.67
2018-10-18T05:45:37.145Z,75.77
2018-10-18T05:46:37.184Z,75.56
2018-10-18T05:47:37.124Z,75.46
2018-10-18T05:48:37.115Z,75.46
2018-10-18T05:49:37.110Z,75.77
2018-10-18T05:50:37.085Z,76.18
2018-10-18T05:51:37.110Z,75.97
2018-10-18T05:52:37.065Z,75.77
2018-10-18T05:53:37.203Z,75.87
2018-10-18T05:54:37.046Z,76.07
2018-10-18T05:55:37.034Z,75.87
2018-10-18T05:56:37.023Z,75.97
2018-10-18T05:57:37.044Z,75.56
2018-10-18T05:58:37.007Z,75.77
2018-10-18T05:59:36.990Z,75.77
2018-10-18T06:00:37.025Z,75.77
2018-10-18T06:01:36.981Z,75.77
2018-10-18T06:02:36.968Z,75.56
2018-10-18T06:03:36.946Z,76.07
2018-10-18T06:04:36.937Z,76.28
2018-10-18T06:05:36.928Z,75.77
2018-10-18T06:06:36.921Z,76.28
2018-10-18T06:07:36.929Z,75.84
2018-10-18T06:08:36.968Z,75.94
2018-10-18T06:09:36.884Z,75.94
2018-10-18T06:10:36.904Z,75.94
2018-10-18T06:11:36.880Z,76.04
2018-10-18T06:12:36.863Z,76.25
2018-10-18T06:13:36.873Z,75.39
2018-10-18T06:14:36.837Z,74.77
2018-10-18T06:15:36.824Z,74.67
2018-10-18T06:16:36.839Z,74.74
2018-10-18T06:17:36.798Z,74.53
2018-10-18T06:18:36.787Z,75.35
2018-10-18T06:19:36.929Z,75.15
2018-10-18T06:20:36.781Z,75.35
2018-10-18T06:21:36.761Z,75.25
2018-10-18T06:22:36.803Z,75.15
2018-10-18T06:23:36.761Z,75.67
2018-10-18T06:24:36.730Z,75.87
2018-10-18T06:25:36.711Z,75.46
2018-10-18T06:26:36.701Z,75.76
2018-10-18T06:27:36.700Z,76.18
2018-10-18T06:28:36.691Z,75.93
2018-10-18T06:29:36.673Z,75.73
2018-10-18T06:30:36.661Z,75.73
2018-10-18T06:31:36.655Z,75.73
2018-10-18T06:32:36.636Z,76.10
2018-10-18T06:33:36.627Z,75.59
2018-10-18T06:34:36.637Z,75.59
2018-10-18T06:35:36.622Z,75.38
2018-10-18T06:36:36.621Z,75.38
2018-10-18T06:37:36.683Z,75.29
2018-10-18T06:38:36.580Z,75.59
2018-10-18T06:39:36.591Z,75.38
2018-10-18T06:40:36.554Z,75.45
2018-10-18T06:41:36.543Z,75.45
2018-10-18T06:42:36.531Z,74.94
2018-10-18T06:43:36.531Z,75.25
2018-10-18T06:44:36.509Z,74.74
2018-10-18T06:45:36.510Z,75.66
2018-10-18T06:46:36.490Z,75.87
2018-10-18T06:47:36.609Z,75.76
2018-10-18T06:48:36.465Z,75.76
2018-10-18T06:49:36.598Z,75.87
2018-10-18T06:50:36.453Z,75.56
2018-10-18T06:51:36.431Z,75.73
2018-10-18T06:52:36.433Z,75.32
2018-10-18T06:53:36.418Z,75.21
2018-10-18T06:54:36.431Z,75.18
2018-10-18T06:55:36.418Z,74.66
2018-10-18T06:56:36.378Z,74.46
2018-10-18T06:57:36.368Z,74.87
2018-10-18T06:58:36.400Z,75.08
2018-10-18T06:59:36.409Z,75.28
2018-10-18T07:00:36.340Z,75.28
2018-10-18T07:01:36.345Z,75.69
2018-10-18T07:02:36.333Z,75.24
2018-10-18T07:03:36.317Z,75.79
2018-10-18T07:04:36.309Z,75.38
2018-10-18T07:05:36.287Z,75.86
2018-10-18T07:06:36.288Z,76.10
2018-10-18T07:07:36.272Z,75.66
2018-10-18T07:08:36.264Z,75.66
2018-10-18T07:09:36.241Z,75.86
2018-10-18T07:10:36.242Z,75.86
2018-10-18T07:11:36.244Z,75.76
2018-10-18T07:12:36.203Z,75.42
2018-10-18T07:13:36.221Z,75.66
2018-10-18T07:14:36.194Z,75.42
2018-10-18T07:15:36.177Z,75.66
2018-10-18T07:16:36.179Z,76.14
2018-10-18T07:17:36.218Z,75.82
2018-10-18T07:18:36.196Z,75.62
2018-10-18T07:19:36.154Z,75.38
2018-10-18T07:20:36.150Z,75.59
2018-10-18T07:21:36.108Z,75.79
2018-10-18T07:22:36.113Z,75.69
2018-10-18T07:23:36.084Z,75.04
2018-10-18T07:24:36.077Z,74.73
2018-10-18T07:25:36.072Z,74.19
2018-10-18T07:26:36.069Z,74.60
2018-10-18T07:27:36.044Z,74.60
2018-10-18T07:28:36.054Z,74.39
2018-10-18T07:29:36.028Z,73.64
2018-10-18T07:30:36.016Z,74.05
2018-10-18T07:31:36.025Z,73.74
2018-10-18T07:32:35.989Z,73.71
2018-10-18T07:33:35.985Z,73.50
2018-10-18T07:34:35.967Z,73.40
2018-10-18T07:35:35.962Z,74.02
2018-10-18T07:36:35.951Z,74.22
2018-10-18T07:37:35.961Z,74.11
2018-10-18T07:38:35.930Z,74.63
2018-10-18T07:39:35.916Z,73.91
2018-10-18T07:40:35.905Z,74.32
2018-10-18T07:41:35.918Z,74.39
2018-10-18T07:42:35.884Z,74.39
2018-10-18T07:43:35.885Z,74.49
2018-10-18T07:44:35.868Z,74.80
2018-10-18T07:45:35.858Z,74.69
2018-10-18T07:46:35.900Z,74.90
2018-10-18T07:47:35.849Z,74.76
2018-10-18T07:48:35.839Z,74.97
2018-10-18T07:49:35.828Z,74.97
2018-10-18T07:50:35.808Z,74.97
2018-10-18T07:51:35.793Z,74.11
2018-10-18T07:52:35.814Z,74.22
2018-10-18T07:53:35.903Z,74.52
2018-10-18T07:54:35.755Z,74.08
2018-10-18T07:55:35.760Z,74.18
2018-10-18T07:56:35.752Z,73.67
2018-10-18T07:57:35.721Z,73.67
2018-10-18T07:58:35.743Z,73.67
2018-10-18T07:59:35.708Z,73.36
2018-10-18T08:00:35.917Z,74.05
2018-10-18T08:01:35.682Z,74.15
2018-10-18T08:02:35.676Z,74.15
2018-10-18T08:03:35.661Z,74.15
2018-10-18T08:04:35.657Z,74.05
2018-10-18T08:05:35.666Z,73.60
2018-10-18T08:06:35.664Z,73.81
2018-10-18T08:07:35.641Z,74.01
2018-10-18T08:08:35.630Z,73.36
2018-10-18T08:09:35.629Z,73.30
2018-10-18T08:10:35.584Z,73.67
2018-10-18T08:11:35.579Z,73.16
2018-10-18T08:12:35.570Z,73.67
2018-10-18T08:13:35.581Z,73.67
2018-10-18T08:14:35.550Z,73.97
2018-10-18T08:15:35.530Z,74.18
2018-10-18T08:16:35.528Z,74.38
2018-10-18T08:17:35.614Z,74.49
2018-10-18T08:18:35.503Z,74.08
2018-10-18T08:19:35.491Z,73.43
2018-10-18T08:20:35.476Z,73.84
2018-10-18T08:21:35.468Z,73.74
2018-10-18T08:22:35.569Z,73.13
2018-10-18T08:23:35.476Z,72.99
2018-10-18T08:24:35.442Z,73.19
2018-10-18T08:25:35.452Z,73.71
2018-10-18T08:26:35.412Z,72.96
2018-10-18T08:27:35.404Z,71.84
2018-10-18T08:28:35.408Z,71.23
2018-10-18T08:29:35.385Z,71.94
2018-10-18T08:30:35.463Z,71.40
2018-10-18T08:31:35.438Z,71.70
2018-10-18T08:32:35.362Z,72.52
2018-10-18T08:33:35.342Z,72.01
2018-10-18T08:34:35.334Z,71.26
2018-10-18T08:35:35.328Z,71.16
2018-10-18T08:36:35.313Z,71.16
2018-10-18T08:37:35.403Z,71.77
2018-10-18T08:38:35.291Z,71.67
2018-10-18T08:39:35.293Z,72.08
2018-10-18T08:40:35.295Z,71.94
2018-10-18T08:41:35.250Z,71.94
2018-10-18T08:42:35.238Z,71.09
2018-10-18T08:43:35.258Z,71.20
2018-10-18T08:44:35.289Z,71.09
2018-10-18T08:45:35.207Z,69.74
2018-10-18T08:46:35.227Z,69.87
2018-10-18T08:47:35.188Z,70.59
2018-10-18T08:48:35.197Z,70.89
2018-10-18T08:49:35.164Z,70.89
2018-10-18T08:50:35.156Z,70.55
2018-10-18T08:51:35.145Z,70.79
2018-10-18T08:52:35.134Z,70.25
2018-10-18T08:53:35.167Z,70.04
2018-10-18T08:54:35.136Z,69.64
2018-10-18T08:55:35.172Z,69.84
2018-10-18T08:56:35.092Z,69.20
2018-10-18T08:57:35.079Z,69.00
2018-10-18T08:58:35.073Z,68.79
2018-10-18T08:59:35.328Z,69.07
2018-10-18T09:00:35.089Z,68.96
2018-10-18T09:01:35.039Z,68.12
2018-10-18T09:02:35.332Z,67.82
2018-10-18T09:03:35.020Z,67.79
2018-10-18T09:04:35.007Z,67.38
2018-10-18T09:05:35.021Z,67.68
2018-10-18T09:06:34.982Z,66.84
2018-10-18T09:07:34.979Z,66.44
2018-10-18T09:08:34.961Z,66.41
2018-10-18T09:09:34.970Z,66.00
2018-10-18T09:10:35.011Z,66.07
2018-10-18T09:11:34.949Z,65.94
2018-10-18T09:12:34.918Z,65.84
2018-10-18T09:13:34.907Z,65.20
2018-10-18T09:14:34.900Z,64.70
2018-10-18T09:15:34.908Z,64.46
2018-10-18T09:16:34.882Z,64.46
2018-10-18T09:17:34.871Z,64.43
2018-10-18T09:18:34.899Z,62.59
2018-10-18T09:19:34.883Z,61.21
2018-10-18T09:20:34.875Z,60.81
2018-10-18T09:21:34.843Z,60.78
2018-10-18T09:22:34.821Z,60.65
2018-10-18T09:23:34.855Z,59.69
2018-10-18T09:24:34.787Z,59.26
2018-10-18T09:25:34.777Z,57.62
2018-10-18T09:26:34.777Z,56.46
2018-10-18T09:27:34.762Z,55.40
2018-10-18T09:28:34.769Z,54.77
2018-10-18T09:29:34.736Z,53.62
2018-10-18T09:30:34.798Z,52.17
2018-10-18T09:31:34.741Z,50.39
2018-10-18T09:32:34.706Z,49.05
2018-10-18T09:33:34.703Z,47.26
2018-10-18T09:34:34.688Z,46.12
2018-10-18T09:35:34.677Z,45.40
2018-10-18T09:36:34.683Z,45.40
2018-10-18T09:37:34.687Z,45.20
2018-10-18T09:38:34.640Z,44.58
2018-10-18T09:39:34.635Z,43.92
2018-10-18T09:40:34.643Z,43.08
2018-10-18T09:41:34.606Z,42.27
2018-10-18T09:42:34.614Z,42.79
2018-10-18T09:43:34.587Z,42.29
2018-10-18T09:44:34.591Z,40.96
2018-10-18T09:45:34.578Z,40.82
2018-10-18T09:46:34.561Z,39.99
2018-10-18T09:47:34.575Z,39.99
2018-10-18T09:48:34.538Z,40.58
2018-10-18T09:49:34.526Z,39.99
2018-10-18T09:50:34.513Z,40.31
2018-10-18T09:51:34.506Z,40.90
2018-10-18T09:52:34.489Z,40.86
2018-10-18T09:53:34.485Z,42.61
2018-10-18T09:54:34.495Z,42.45
2018-10-18T09:55:34.538Z,44.60
2018-10-18T09:56:34.446Z,46.04
2018-10-18T09:57:34.440Z,46.98
2018-10-18T09:58:34.433Z,46.68
2018-10-18T09:59:34.563Z,46.36
2018-10-18T10:00:34.407Z,45.94
2018-10-18T10:01:34.395Z,46.98
2018-10-18T10:02:34.417Z,47.18
2018-10-18T10:03:34.402Z,47.24
2018-10-18T10:04:34.362Z,45.70
2018-10-18T10:05:34.358Z,44.34
2018-10-18T10:06:34.345Z,40.52
2018-10-18T10:07:34.348Z,38.76
2018-10-18T10:08:34.325Z,36.52
2018-10-18T10:09:34.316Z,35.58
2018-10-18T10:10:34.299Z,34.95
2018-10-18T10:11:34.354Z,33.44
2018-10-18T10:12:34.276Z,33.12
2018-10-18T10:13:34.375Z,32.61
2018-10-18T10:14:34.270Z,32.28
2018-10-18T10:15:34.245Z,32.27
2018-10-18T10:16:34.237Z,32.25
2018-10-18T10:17:34.264Z,31.17
2018-10-18T10:18:34.232Z,30.77
2018-10-18T10:19:34.245Z,30.98
2018-10-18T10:20:34.195Z,30.94
2018-10-18T10:21:34.185Z,31.24
2018-10-18T10:22:34.185Z,30.98
2018-10-18T10:23:34.165Z,31.89
2018-10-18T10:24:34.200Z,32.51
2018-10-18T10:25:34.146Z,31.76
2018-10-18T10:26:34.137Z,32.95
2018-10-18T10:27:34.121Z,32.56
2018-10-18T10:28:34.121Z,33.58
2018-10-18T10:29:34.105Z,34.81
2018-10-18T10:30:34.097Z,35.02
2018-10-18T10:31:34.077Z,34.72
2018-10-18T10:32:34.073Z,35.55
2018-10-18T10:33:34.191Z,36.57
2018-10-18T10:34:34.073Z,37.48
2018-10-18T10:35:34.096Z,37.87
2018-10-18T10:36:34.026Z,37.08
2018-10-18T10:37:34.021Z,37.38
2018-10-18T10:38:34.062Z,36.88
2018-10-18T10:39:33.994Z,35.98
2018-10-18T10:40:33.990Z,35.58
2018-10-18T10:41:33.976Z,35.75
2018-10-18T10:42:33.965Z,33.18
2018-10-18T10:43:33.956Z,33.43
2018-10-18T10:44:33.981Z,32.40
2018-10-18T10:45:33.972Z,31.29
2018-10-18T10:46:33.926Z,30.96
2018-10-18T10:47:33.910Z,29.77
2018-10-18T10:48:33.920Z,29.77
2018-10-18T10:49:33.924Z,28.88
2018-10-18T10:50:33.902Z,28.47
2018-10-18T10:51:33.893Z,28.65
2018-10-18T10:52:33.861Z,27.58
2018-10-18T10:53:33.856Z,28.16
2018-10-18T10:54:34.851Z,29.74
2018-10-18T10:55:33.847Z,28.55
2018-10-18T10:56:33.841Z,28.42
2018-10-18T10:57:33.811Z,27.13
2018-10-18T10:58:33.856Z,27.31
2018-10-18T10:59:33.800Z,28.14
2018-10-18T11:00:33.780Z,28.30
2018-10-18T11:01:33.770Z,27.51
2018-10-18T11:02:33.767Z,27.89
2018-10-18T11:03:33.760Z,27.09
2018-10-18T11:04:33.736Z,27.47
2018-10-18T11:05:33.727Z,27.28
2018-10-18T11:06:33.722Z,26.98
2018-10-18T11:07:33.709Z,26.79
2018-10-18T11:08:33.730Z,26.98
2018-10-18T11:09:33.743Z,26.50
2018-10-18T11:10:33.702Z,26.58
2018-10-18T11:11:33.668Z,26.47
2018-10-18T11:12:33.675Z,26.18
2018-10-18T11:13:33.656Z,26.30
2018-10-18T11:14:33.643Z,26.31
2018-10-18T11:15:33.631Z,26.79
2018-10-18T11:16:33.621Z,26.69
2018-10-18T11:17:33.611Z,26.79
2018-10-18T11:18:33.625Z,26.89
2018-10-18T11:19:33.599Z,26.50
2018-10-18T11:20:33.584Z,26.61
2018-10-18T11:21:33.611Z,26.89
2018-10-18T11:22:33.564Z,26.69
2018-10-18T11:23:33.549Z,26.40
2018-10-18T11:24:33.570Z,26.59
2018-10-18T11:25:33.589Z,26.59
2018-10-18T11:26:33.567Z,26.90
2018-10-18T11:27:33.508Z,26.91
2018-10-18T11:28:33.497Z,26.70
2018-10-18T11:29:33.488Z,26.79
2018-10-18T11:30:33.473Z,27.19
2018-10-18T11:31:33.489Z,26.70
2018-10-18T11:32:33.458Z,26.81
2018-10-18T11:33:33.450Z,27.02
2018-10-18T11:34:33.489Z,27.91
2018-10-18T11:35:33.467Z,27.15
2018-10-18T11:36:33.425Z,28.14
2018-10-18T11:37:33.403Z,27.94
2018-10-18T11:38:33.396Z,28.94
2018-10-18T11:39:33.383Z,29.04
2018-10-18T11:40:33.371Z,29.63
2018-10-18T11:41:33.364Z,29.24
2018-10-18T11:42:33.433Z,29.24
2018-10-18T11:43:33.389Z,29.84
2018-10-18T11:44:33.335Z,29.68
2018-10-18T11:45:33.323Z,29.75
2018-10-18T11:46:33.359Z,29.25
2018-10-18T11:47:33.379Z,29.64
2018-10-18T11:48:33.303Z,29.16
2018-10-18T11:49:33.282Z,29.25
2018-10-18T11:50:33.274Z,29.04
2018-10-18T11:51:33.389Z,28.55
2018-10-18T11:52:33.254Z,28.34
2018-10-18T11:53:33.250Z,28.34
2018-10-18T11:54:33.241Z,27.86
2018-10-18T11:55:33.227Z,27.66
2018-10-18T11:56:33.208Z,28.47
2018-10-18T11:57:33.200Z,28.16
2018-10-18T11:58:33.196Z,27.73
2018-10-18T11:59:33.181Z,27.36
2018-10-18T12:00:33.173Z,27.77
2018-10-18T12:01:33.221Z,28.57
2018-10-18T12:02:33.236Z,29.07
2018-10-18T12:03:33.147Z,29.66
2018-10-18T12:04:33.139Z,29.25
2018-10-18T12:05:33.135Z,28.06
2018-10-18T12:06:33.113Z,27.56
2018-10-18T12:07:33.109Z,28.06
2018-10-18T12:08:33.102Z,28.85
2018-10-18T12:09:33.078Z,28.06
2018-10-18T12:10:33.092Z,29.36
2018-10-18T12:11:33.080Z,29.77
2018-10-18T12:12:33.051Z,29.68
2018-10-18T12:13:33.051Z,29.77
2018-10-18T12:14:33.026Z,28.97
2018-10-18T12:15:33.022Z,29.25
2018-10-18T12:16:33.008Z,29.06
2018-10-18T12:17:33.013Z,29.36
2018-10-18T12:18:33.017Z,29.16
2018-10-18T12:19:33.014Z,29.55
2018-10-18T12:20:32.963Z,29.38
2018-10-18T12:21:32.988Z,29.79
2018-10-18T12:22:32.947Z,29.88
2018-10-18T12:23:32.931Z,30.08
2018-10-18T12:24:32.938Z,30.08
2018-10-18T12:25:32.934Z,30.08
2018-10-18T12:26:32.973Z,30.70
2018-10-18T12:27:32.895Z,30.91
2018-10-18T12:28:32.883Z,30.91
2018-10-18T12:29:32.905Z,31.29
2018-10-18T12:30:32.864Z,29.83
2018-10-18T12:31:32.936Z,30.01
2018-10-18T12:32:32.854Z,30.62
2018-10-18T12:33:32.836Z,31.04
2018-10-18T12:34:32.828Z,31.35
2018-10-18T12:35:32.830Z,31.23
2018-10-18T12:36:32.810Z,30.85
2018-10-18T12:37:32.929Z,31.84
2018-10-18T12:38:32.850Z,31.05
2018-10-18T12:39:33.468Z,30.94
2018-10-18T12:40:32.891Z,31.23
2018-10-18T12:41:32.879Z,31.25
2018-10-18T12:42:32.743Z,31.84
2018-10-18T12:43:32.729Z,31.15
2018-10-18T12:44:32.716Z,31.15
2018-10-18T12:45:32.717Z,30.95
2018-10-18T12:46:32.698Z,31.04
2018-10-18T12:47:32.685Z,31.41
2018-10-18T12:48:32.693Z,30.81
2018-10-18T12:49:32.683Z,31.12
2018-10-18T12:50:32.673Z,31.02
2018-10-18T12:51:32.642Z,30.84
2018-10-18T12:52:32.646Z,31.54